sensor_id;sensor_type;location;lat;lon;timestamp;noise_LAeq;noise_LA_min;noise_LA_max;noise_LA01;noise_LA95
53702;Laerm;39594;52.194;9.886;2023-03-03T00:00:41;37.92;32.35;40.98;;
53702;Laerm;39594;52.194;9.886;2023-03-03T00:03:07;37.73;30.89;40.71;;
53702;Laerm;39594;52.194;9.886;2023-03-03T00:05:33;37.46;30.89;40.98;;
53702;Laerm;39594;52.194;9.886;2023-03-03T00:08:06;37.43;31.68;47.02;;
53702;Laerm;39594;52.194;9.886;2023-03-03T00:10:45;37.57;30.89;40.62;;
53702;Laerm;39594;52.194;9.886;2023-03-03T00:13:23;56.33;32.35;75.44;;
53702;Laerm;39594;52.194;9.886;2023-03-03T00:15:49;37.82;30.89;41.53;;
53702;Laerm;39594;52.194;9.886;2023-03-03T00:18:25;37.64;30.89;40.43;;
53702;Laerm;39594;52.194;9.886;2023-03-03T00:20:53;47.45;31.68;65.01;;
53702;Laerm;39594;52.194;9.886;2023-03-03T00:25:48;37.53;28.67;40.33;;
53702;Laerm;39594;52.194;9.886;2023-03-03T00:28:23;37.37;29.92;41.22;;
53702;Laerm;39594;52.194;9.886;2023-03-03T00:30:53;53.45;29.92;70.60;;
53702;Laerm;39594;52.194;9.886;2023-03-03T00:33:26;37.19;29.92;40.23;;
53702;Laerm;39594;52.194;9.886;2023-03-03T00:35:53;37.28;31.68;43.14;;
53702;Laerm;39594;52.194;9.886;2023-03-03T00:38:26;37.67;31.68;41.38;;
53702;Laerm;39594;52.194;9.886;2023-03-03T00:40:54;37.76;31.68;40.62;;
53702;Laerm;39594;52.194;9.886;2023-03-03T00:43:30;37.74;30.89;40.79;;
53702;Laerm;39594;52.194;9.886;2023-03-03T00:45:58;58.27;32.35;76.75;;
53702;Laerm;39594;52.194;9.886;2023-03-03T00:48:31;37.22;30.89;41.68;;
53702;Laerm;39594;52.194;9.886;2023-03-03T00:51:12;37.47;29.92;40.23;;
53702;Laerm;39594;52.194;9.886;2023-03-03T00:53:46;37.01;29.57;40.03;;
53702;Laerm;39594;52.194;9.886;2023-03-03T00:56:12;37.50;31.68;40.98;;
53702;Laerm;39594;52.194;9.886;2023-03-03T00:58:37;37.24;28.67;40.43;;
53702;Laerm;39594;52.194;9.886;2023-03-03T01:01:08;36.95;31.68;45.57;;
53702;Laerm;39594;52.194;9.886;2023-03-03T01:03:53;37.77;26.91;41.89;;
53702;Laerm;39594;52.194;9.886;2023-03-03T01:06:19;38.01;28.67;50.11;;
53702;Laerm;39594;52.194;9.886;2023-03-03T01:08:51;36.95;28.67;49.44;;
53702;Laerm;39594;52.194;9.886;2023-03-03T01:11:19;37.28;29.92;40.53;;
53702;Laerm;39594;52.194;9.886;2023-03-03T01:13:49;37.43;30.89;40.23;;
53702;Laerm;39594;52.194;9.886;2023-03-03T01:16:15;37.26;30.89;41.30;;
53702;Laerm;39594;52.194;9.886;2023-03-03T01:18:40;37.14;31.68;40.53;;
53702;Laerm;39594;52.194;9.886;2023-03-03T01:21:06;37.09;29.92;42.59;;
53702;Laerm;39594;52.194;9.886;2023-03-03T01:23:32;37.30;29.92;46.13;;
53702;Laerm;39594;52.194;9.886;2023-03-03T01:26:00;37.34;31.68;42.29;;
53702;Laerm;39594;52.194;9.886;2023-03-03T01:28:25;37.06;31.33;40.80;;
53702;Laerm;39594;52.194;9.886;2023-03-03T01:31:09;37.65;31.68;44.73;;
53702;Laerm;39594;52.194;9.886;2023-03-03T01:33:36;37.74;30.89;41.82;;
53702;Laerm;39594;52.194;9.886;2023-03-03T01:36:02;37.73;28.67;46.84;;
53702;Laerm;39594;52.194;9.886;2023-03-03T01:38:36;37.41;29.92;45.80;;
53702;Laerm;39594;52.194;9.886;2023-03-03T01:41:01;54.35;30.89;73.52;;
53702;Laerm;39594;52.194;9.886;2023-03-03T01:43:31;37.38;30.89;46.64;;
53702;Laerm;39594;52.194;9.886;2023-03-03T01:48:23;52.58;31.68;70.10;;
53702;Laerm;39594;52.194;9.886;2023-03-03T01:51:00;38.07;32.93;42.71;;
53702;Laerm;39594;52.194;9.886;2023-03-03T01:53:37;58.36;32.35;79.79;;
53702;Laerm;39594;52.194;9.886;2023-03-03T01:56:04;37.43;30.89;40.79;;
53702;Laerm;39594;52.194;9.886;2023-03-03T01:58:35;37.11;29.92;42.47;;
53702;Laerm;39594;52.194;9.886;2023-03-03T02:01:03;37.68;31.68;49.77;;
53702;Laerm;39594;52.194;9.886;2023-03-03T02:03:29;37.40;29.92;40.23;;
53702;Laerm;39594;52.194;9.886;2023-03-03T02:05:56;37.67;31.68;40.71;;
53702;Laerm;39594;52.194;9.886;2023-03-03T02:08:24;37.88;32.35;41.06;;
53702;Laerm;39594;52.194;9.886;2023-03-03T02:10:52;37.82;31.68;41.06;;
53702;Laerm;39594;52.194;9.886;2023-03-03T02:13:18;37.57;30.89;40.53;;
53702;Laerm;39594;52.194;9.886;2023-03-03T02:15:44;37.38;31.68;43.90;;
53702;Laerm;39594;52.194;9.886;2023-03-03T02:18:10;37.67;31.68;41.06;;
53702;Laerm;39594;52.194;9.886;2023-03-03T02:20:51;37.45;31.68;41.06;;
53702;Laerm;39594;52.194;9.886;2023-03-03T02:23:22;36.91;32.35;46.52;;
53702;Laerm;39594;52.194;9.886;2023-03-03T02:28:23;38.18;30.89;40.80;;
53702;Laerm;39594;52.194;9.886;2023-03-03T02:30:49;37.69;31.68;47.30;;
53702;Laerm;39594;52.194;9.886;2023-03-03T02:33:14;56.59;32.35;74.11;;
53702;Laerm;39594;52.194;9.886;2023-03-03T02:35:39;37.22;30.89;40.53;;
53702;Laerm;39594;52.194;9.886;2023-03-03T02:38:11;37.79;31.68;45.33;;
53702;Laerm;39594;52.194;9.886;2023-03-03T02:40:41;37.87;29.92;45.48;;
53702;Laerm;39594;52.194;9.886;2023-03-03T02:43:07;51.74;30.89;68.74;;
53702;Laerm;39594;52.194;9.886;2023-03-03T02:45:33;38.38;31.68;47.02;;
53702;Laerm;39594;52.194;9.886;2023-03-03T02:47:58;37.77;23.90;44.03;;
53702;Laerm;39594;52.194;9.886;2023-03-03T02:50:23;37.37;30.89;42.82;;
53702;Laerm;39594;52.194;9.886;2023-03-03T02:52:48;55.27;29.92;70.88;;
53702;Laerm;39594;52.194;9.886;2023-03-03T02:55:14;37.20;28.67;42.35;;
53702;Laerm;39594;52.194;9.886;2023-03-03T02:57:39;37.66;28.67;46.91;;
53702;Laerm;39594;52.194;9.886;2023-03-03T03:00:04;37.63;30.89;46.62;;
53702;Laerm;39594;52.194;9.886;2023-03-03T03:02:30;39.92;28.67;50.37;;
53702;Laerm;39594;52.194;9.886;2023-03-03T03:04:55;39.72;32.35;49.07;;
53702;Laerm;39594;52.194;9.886;2023-03-03T03:07:20;64.61;33.44;83.72;;
53702;Laerm;39594;52.194;9.886;2023-03-03T03:09:45;54.70;33.44;71.75;;
53702;Laerm;39594;52.194;9.886;2023-03-03T03:12:11;52.89;30.89;73.02;;
53702;Laerm;39594;52.194;9.886;2023-03-03T03:14:36;58.96;29.92;75.95;;
53702;Laerm;39594;52.194;9.886;2023-03-03T03:17:02;57.76;32.93;76.81;;
53702;Laerm;39594;52.194;9.886;2023-03-03T03:19:28;37.70;32.35;40.62;;
53702;Laerm;39594;52.194;9.886;2023-03-03T03:21:53;57.88;33.44;75.85;;
53702;Laerm;39594;52.194;9.886;2023-03-03T03:24:19;38.49;32.35;41.82;;
53702;Laerm;39594;52.194;9.886;2023-03-03T03:26:44;52.19;31.68;68.99;;
53702;Laerm;39594;52.194;9.886;2023-03-03T03:29:09;38.29;33.44;41.89;;
53702;Laerm;39594;52.194;9.886;2023-03-03T03:31:35;38.00;32.93;46.52;;
53702;Laerm;39594;52.194;9.886;2023-03-03T03:34:00;62.60;32.35;82.56;;
53702;Laerm;39594;52.194;9.886;2023-03-03T03:36:25;53.78;32.35;75.79;;
53702;Laerm;39594;52.194;9.886;2023-03-03T03:38:52;53.56;32.35;72.41;;
53702;Laerm;39594;52.194;9.886;2023-03-03T03:41:17;54.06;34.69;71.19;;
53702;Laerm;39594;52.194;9.886;2023-03-03T03:43:42;55.88;33.90;70.12;;
53702;Laerm;39594;52.194;9.886;2023-03-03T03:46:08;49.06;33.44;69.07;;
53702;Laerm;39594;52.194;9.886;2023-03-03T03:48:33;56.22;34.31;73.51;;
53702;Laerm;39594;52.194;9.886;2023-03-03T03:50:58;57.00;34.69;73.17;;
53702;Laerm;39594;52.194;9.886;2023-03-03T03:53:24;60.63;34.31;77.72;;
53702;Laerm;39594;52.194;9.886;2023-03-03T03:55:49;62.56;32.93;80.30;;
53702;Laerm;39594;52.194;9.886;2023-03-03T03:58:14;53.69;33.90;71.63;;
53702;Laerm;39594;52.194;9.886;2023-03-03T04:00:41;52.24;33.90;71.50;;
53702;Laerm;39594;52.194;9.886;2023-03-03T04:03:06;53.18;34.31;72.60;;
53702;Laerm;39594;52.194;9.886;2023-03-03T04:05:31;62.90;33.44;79.49;;
53702;Laerm;39594;52.194;9.886;2023-03-03T04:07:56;63.71;35.66;82.28;;
53702;Laerm;39594;52.194;9.886;2023-03-03T04:10:22;57.99;36.91;73.87;;
53702;Laerm;39594;52.194;9.886;2023-03-03T04:12:47;57.66;35.66;71.34;;
53702;Laerm;39594;52.194;9.886;2023-03-03T04:15:12;53.04;35.36;71.58;;
53702;Laerm;39594;52.194;9.886;2023-03-03T04:17:38;57.38;35.04;71.88;;
53702;Laerm;39594;52.194;9.886;2023-03-03T04:20:04;64.62;36.69;75.61;;
53702;Laerm;39594;52.194;9.886;2023-03-03T04:22:30;60.90;35.36;73.97;;
53702;Laerm;39594;52.194;9.886;2023-03-03T04:25:00;63.36;35.04;76.61;;
53702;Laerm;39594;52.194;9.886;2023-03-03T04:27:29;60.41;35.66;75.71;;
53702;Laerm;39594;52.194;9.886;2023-03-03T04:29:54;64.80;38.52;79.92;;
53702;Laerm;39594;52.194;9.886;2023-03-03T04:32:19;60.37;37.70;75.31;;
53702;Laerm;39594;52.194;9.886;2023-03-03T04:34:44;64.22;37.35;78.61;;
53702;Laerm;39594;52.194;9.886;2023-03-03T04:37:10;62.86;38.95;74.51;;
53702;Laerm;39594;52.194;9.886;2023-03-03T04:39:35;63.28;38.05;74.48;;
53702;Laerm;39594;52.194;9.886;2023-03-03T04:42:00;60.01;36.20;76.98;;
53702;Laerm;39594;52.194;9.886;2023-03-03T04:44:25;59.25;36.69;74.80;;
53702;Laerm;39594;52.194;9.886;2023-03-03T04:46:50;62.74;36.69;75.07;;
53702;Laerm;39594;52.194;9.886;2023-03-03T04:49:15;67.17;41.68;80.04;;
53702;Laerm;39594;52.194;9.886;2023-03-03T04:51:41;65.72;37.88;79.02;;
53702;Laerm;39594;52.194;9.886;2023-03-03T04:54:06;63.16;37.88;75.94;;
53702;Laerm;39594;52.194;9.886;2023-03-03T04:56:31;63.14;39.21;78.19;;
53702;Laerm;39594;52.194;9.886;2023-03-03T04:58:56;62.35;38.95;74.96;;
53702;Laerm;39594;52.194;9.886;2023-03-03T05:01:22;61.22;37.53;73.54;;
53702;Laerm;39594;52.194;9.886;2023-03-03T05:03:47;59.09;37.70;75.48;;
53702;Laerm;39594;52.194;9.886;2023-03-03T05:06:12;63.29;38.37;76.41;;
53702;Laerm;39594;52.194;9.886;2023-03-03T05:08:37;64.04;39.58;79.13;;
53702;Laerm;39594;52.194;9.886;2023-03-03T05:11:03;60.22;38.37;73.68;;
53702;Laerm;39594;52.194;9.886;2023-03-03T05:13:28;62.68;39.08;74.00;;
53702;Laerm;39594;52.194;9.886;2023-03-03T05:15:54;60.34;37.70;73.10;;
53702;Laerm;39594;52.194;9.886;2023-03-03T05:18:19;65.51;41.30;77.29;;
53702;Laerm;39594;52.194;9.886;2023-03-03T05:20:45;62.48;38.05;74.92;;
53702;Laerm;39594;52.194;9.886;2023-03-03T05:23:10;65.10;38.81;75.77;;
53702;Laerm;39594;52.194;9.886;2023-03-03T05:25:35;65.53;40.23;79.49;;
53702;Laerm;39594;52.194;9.886;2023-03-03T05:28:00;64.56;39.92;77.18;;
53702;Laerm;39594;52.194;9.886;2023-03-03T05:30:25;62.18;40.13;72.64;;
53702;Laerm;39594;52.194;9.886;2023-03-03T05:32:51;62.12;39.92;74.39;;
53702;Laerm;39594;52.194;9.886;2023-03-03T05:35:16;65.90;41.30;77.50;;
53702;Laerm;39594;52.194;9.886;2023-03-03T05:37:41;66.85;40.71;84.62;;
53702;Laerm;39594;52.194;9.886;2023-03-03T05:40:12;64.96;38.05;78.05;;
53702;Laerm;39594;52.194;9.886;2023-03-03T05:42:37;63.26;41.89;75.00;;
53702;Laerm;39594;52.194;9.886;2023-03-03T05:45:02;66.71;40.23;76.50;;
53702;Laerm;39594;52.194;9.886;2023-03-03T05:47:28;66.98;38.95;81.30;;
53702;Laerm;39594;52.194;9.886;2023-03-03T05:49:53;62.93;38.67;73.73;;
53702;Laerm;39594;52.194;9.886;2023-03-03T05:52:18;62.59;39.70;73.30;;
53702;Laerm;39594;52.194;9.886;2023-03-03T05:54:43;65.84;40.80;76.54;;
53702;Laerm;39594;52.194;9.886;2023-03-03T05:57:08;64.77;40.43;74.60;;
53702;Laerm;39594;52.194;9.886;2023-03-03T05:59:34;65.30;42.35;75.96;;
53702;Laerm;39594;52.194;9.886;2023-03-03T06:01:59;67.63;41.82;78.13;;
53702;Laerm;39594;52.194;9.886;2023-03-03T06:04:24;66.06;41.53;79.63;;
53702;Laerm;39594;52.194;9.886;2023-03-03T06:06:49;66.23;41.14;76.74;;
53702;Laerm;39594;52.194;9.886;2023-03-03T06:09:14;65.14;41.30;75.77;;
53702;Laerm;39594;52.194;9.886;2023-03-03T06:11:41;69.27;43.68;82.49;;
53702;Laerm;39594;52.194;9.886;2023-03-03T06:14:06;65.30;39.57;74.33;;
53702;Laerm;39594;52.194;9.886;2023-03-03T06:16:32;66.22;41.82;80.52;;
53702;Laerm;39594;52.194;9.886;2023-03-03T06:18:57;66.80;41.30;78.30;;
53702;Laerm;39594;52.194;9.886;2023-03-03T06:21:22;69.95;42.16;84.37;;
53702;Laerm;39594;52.194;9.886;2023-03-03T06:23:47;69.13;45.99;80.99;;
53702;Laerm;39594;52.194;9.886;2023-03-03T06:26:13;68.06;42.03;81.58;;
53702;Laerm;39594;52.194;9.886;2023-03-03T06:28:38;66.93;43.14;77.26;;
53702;Laerm;39594;52.194;9.886;2023-03-03T06:31:03;67.94;44.80;75.11;;
53702;Laerm;39594;52.194;9.886;2023-03-03T06:33:28;66.30;42.88;82.92;;
53702;Laerm;39594;52.194;9.886;2023-03-03T06:35:53;66.54;41.75;80.02;;
53702;Laerm;39594;52.194;9.886;2023-03-03T06:38:19;66.77;40.62;78.53;;
53702;Laerm;39594;52.194;9.886;2023-03-03T06:40:45;65.09;41.30;77.25;;
53702;Laerm;39594;52.194;9.886;2023-03-03T06:43:10;67.15;43.34;80.15;;
53702;Laerm;39594;52.194;9.886;2023-03-03T06:45:35;63.66;38.52;74.32;;
53702;Laerm;39594;52.194;9.886;2023-03-03T06:48:00;69.72;39.70;82.19;;
53702;Laerm;39594;52.194;9.886;2023-03-03T06:50:26;65.46;44.15;78.85;;
53702;Laerm;39594;52.194;9.886;2023-03-03T06:52:54;68.10;45.27;81.29;;
53702;Laerm;39594;52.194;9.886;2023-03-03T06:55:24;65.34;43.29;76.24;;
53702;Laerm;39594;52.194;9.886;2023-03-03T06:57:49;67.81;46.38;78.69;;
53702;Laerm;39594;52.194;9.886;2023-03-03T07:02:40;65.43;39.92;76.10;;
53702;Laerm;39594;52.194;9.886;2023-03-03T07:05:06;64.07;40.23;75.47;;
53702;Laerm;39594;52.194;9.886;2023-03-03T07:07:34;67.98;42.47;83.49;;
53702;Laerm;39594;52.194;9.886;2023-03-03T07:09:59;65.54;41.06;74.58;;
53702;Laerm;39594;52.194;9.886;2023-03-03T07:12:26;65.84;39.34;79.93;;
53702;Laerm;39594;52.194;9.886;2023-03-03T07:15:15;67.15;43.44;80.03;;
53702;Laerm;39594;52.194;9.886;2023-03-03T07:17:39;63.59;40.80;74.31;;
53702;Laerm;39594;52.194;9.886;2023-03-03T07:20:13;63.51;40.13;77.51;;
53702;Laerm;39594;52.194;9.886;2023-03-03T07:22:41;63.66;39.92;75.04;;
53702;Laerm;39594;52.194;9.886;2023-03-03T07:25:08;67.14;41.46;82.50;;
53702;Laerm;39594;52.194;9.886;2023-03-03T07:27:42;64.11;41.30;78.49;;
53702;Laerm;39594;52.194;9.886;2023-03-03T07:32:39;66.72;41.22;79.46;;
53702;Laerm;39594;52.194;9.886;2023-03-03T07:35:12;63.43;39.81;78.09;;
53702;Laerm;39594;52.194;9.886;2023-03-03T07:37:44;64.94;41.22;81.44;;
53702;Laerm;39594;52.194;9.886;2023-03-03T07:42:53;63.48;39.92;75.39;;
53702;Laerm;39594;52.194;9.886;2023-03-03T07:45:26;63.94;40.03;74.63;;
53702;Laerm;39594;52.194;9.886;2023-03-03T07:47:54;65.51;40.53;80.00;;
53702;Laerm;39594;52.194;9.886;2023-03-03T07:50:21;64.60;42.88;75.92;;
53702;Laerm;39594;52.194;9.886;2023-03-03T07:53:07;65.06;39.21;77.70;;
53702;Laerm;39594;52.194;9.886;2023-03-03T07:55:37;65.46;41.53;80.47;;
53702;Laerm;39594;52.194;9.886;2023-03-03T08:03:11;62.85;36.20;73.07;;
53702;Laerm;39594;52.194;9.886;2023-03-03T08:05:41;61.11;38.81;73.66;;
53702;Laerm;39594;52.194;9.886;2023-03-03T08:10:48;62.73;37.88;75.29;;
53702;Laerm;39594;52.194;9.886;2023-03-03T08:15:47;65.64;39.34;78.65;;
53702;Laerm;39594;52.194;9.886;2023-03-03T08:18:27;62.92;40.13;75.78;;
53702;Laerm;39594;52.194;9.886;2023-03-03T08:20:55;66.10;38.67;78.60;;
53702;Laerm;39594;52.194;9.886;2023-03-03T08:23:20;61.20;36.45;76.47;;
53702;Laerm;39594;52.194;9.886;2023-03-03T08:25:46;64.08;38.52;77.78;;
53702;Laerm;39594;52.194;9.886;2023-03-03T08:28:12;68.27;41.81;79.39;;
53702;Laerm;39594;52.194;9.886;2023-03-03T08:30:38;64.93;41.14;82.15;;
53702;Laerm;39594;52.194;9.886;2023-03-03T08:33:03;60.53;36.56;77.72;;
53702;Laerm;39594;52.194;9.886;2023-03-03T08:35:28;63.07;37.88;77.39;;
53702;Laerm;39594;52.194;9.886;2023-03-03T08:37:54;62.37;38.52;76.63;;
53702;Laerm;39594;52.194;9.886;2023-03-03T08:40:19;63.15;40.03;77.88;;
53702;Laerm;39594;52.194;9.886;2023-03-03T08:42:44;63.13;38.21;77.07;;
53702;Laerm;39594;52.194;9.886;2023-03-03T08:45:09;64.42;37.52;75.06;;
53702;Laerm;39594;52.194;9.886;2023-03-03T08:47:34;66.17;39.68;78.60;;
53702;Laerm;39594;52.194;9.886;2023-03-03T08:50:00;65.24;40.98;77.21;;
53702;Laerm;39594;52.194;9.886;2023-03-03T08:52:25;61.83;39.46;73.98;;
53702;Laerm;39594;52.194;9.886;2023-03-03T08:54:50;61.15;37.70;74.57;;
53702;Laerm;39594;52.194;9.886;2023-03-03T08:57:16;61.22;38.67;75.94;;
53702;Laerm;39594;52.194;9.886;2023-03-03T08:59:41;64.96;41.53;79.91;;
53702;Laerm;39594;52.194;9.886;2023-03-03T09:02:06;65.11;40.43;78.99;;
53702;Laerm;39594;52.194;9.886;2023-03-03T09:04:35;58.97;36.91;73.17;;
53702;Laerm;39594;52.194;9.886;2023-03-03T09:07:00;67.15;40.53;80.57;;
53702;Laerm;39594;52.194;9.886;2023-03-03T09:09:26;64.69;39.08;80.40;;
53702;Laerm;39594;52.194;9.886;2023-03-03T09:11:58;65.74;36.69;80.67;;
53702;Laerm;39594;52.194;9.886;2023-03-03T09:14:24;63.31;41.14;73.66;;
53702;Laerm;39594;52.194;9.886;2023-03-03T09:16:52;62.26;38.05;75.32;;
53702;Laerm;39594;52.194;9.886;2023-03-03T09:19:28;64.79;36.45;77.72;;
53702;Laerm;39594;52.194;9.886;2023-03-03T09:21:55;67.23;42.03;80.11;;
53702;Laerm;39594;52.194;9.886;2023-03-03T09:24:24;62.17;38.21;74.27;;
53702;Laerm;39594;52.194;9.886;2023-03-03T09:26:49;60.91;38.37;80.16;;
53702;Laerm;39594;52.194;9.886;2023-03-03T09:29:36;63.72;43.34;81.45;;
53702;Laerm;39594;52.194;9.886;2023-03-03T09:34:40;63.75;43.19;77.73;;
53702;Laerm;39594;52.194;9.886;2023-03-03T09:37:14;67.34;41.06;84.77;;
53702;Laerm;39594;52.194;9.886;2023-03-03T09:39:45;63.46;35.66;85.83;;
53702;Laerm;39594;52.194;9.886;2023-03-03T09:44:46;63.89;38.81;78.81;;
53702;Laerm;39594;52.194;9.886;2023-03-03T09:47:28;65.26;38.37;79.17;;
53702;Laerm;39594;52.194;9.886;2023-03-03T09:55:10;59.83;38.67;75.79;;
53702;Laerm;39594;52.194;9.886;2023-03-03T09:57:58;61.99;36.69;74.14;;
53702;Laerm;39594;52.194;9.886;2023-03-03T10:06:18;65.09;37.88;80.50;;
53702;Laerm;39594;52.194;9.886;2023-03-03T10:09:05;64.16;40.98;79.96;;
53702;Laerm;39594;52.194;9.886;2023-03-03T10:14:09;62.72;40.33;72.84;;
53702;Laerm;39594;52.194;9.886;2023-03-03T10:16:46;62.97;38.21;78.88;;
53702;Laerm;39594;52.194;9.886;2023-03-03T10:21:41;67.96;39.58;83.67;;
53702;Laerm;39594;52.194;9.886;2023-03-03T10:24:15;62.18;36.91;74.53;;
53702;Laerm;39594;52.194;9.886;2023-03-03T10:27:33;63.69;38.81;76.08;;
53702;Laerm;39594;52.194;9.886;2023-03-03T10:29:38;59.52;36.69;71.42;;
53702;Laerm;39594;52.194;9.886;2023-03-03T10:42:34;60.36;38.81;72.37;;
53702;Laerm;39594;52.194;9.886;2023-03-03T10:47:42;63.05;38.21;75.80;;
53702;Laerm;39594;52.194;9.886;2023-03-03T10:50:16;66.08;41.68;78.15;;
53702;Laerm;39594;52.194;9.886;2023-03-03T10:55:36;63.75;41.46;77.94;;
53702;Laerm;39594;52.194;9.886;2023-03-03T11:03:42;64.64;41.30;81.68;;
53702;Laerm;39594;52.194;9.886;2023-03-03T11:06:17;62.91;37.70;82.01;;
53702;Laerm;39594;52.194;9.886;2023-03-03T11:08:52;64.38;37.70;78.16;;
53702;Laerm;39594;52.194;9.886;2023-03-03T11:11:25;63.05;39.46;73.50;;
53702;Laerm;39594;52.194;9.886;2023-03-03T11:13:55;60.61;35.36;73.53;;
53702;Laerm;39594;52.194;9.886;2023-03-03T11:16:35;63.57;36.91;75.32;;
53702;Laerm;39594;52.194;9.886;2023-03-03T11:19:17;63.02;40.43;74.28;;
53702;Laerm;39594;52.194;9.886;2023-03-03T11:21:50;63.28;35.94;75.31;;
53702;Laerm;39594;52.194;9.886;2023-03-03T11:32:28;65.07;38.21;77.23;;
53702;Laerm;39594;52.194;9.886;2023-03-03T11:37:33;63.84;37.52;76.09;;
53702;Laerm;39594;52.194;9.886;2023-03-03T11:40:03;65.80;40.13;78.28;;
53702;Laerm;39594;52.194;9.886;2023-03-03T11:42:38;64.65;39.81;79.63;;
53702;Laerm;39594;52.194;9.886;2023-03-03T11:45:13;61.82;40.62;75.76;;
53702;Laerm;39594;52.194;9.886;2023-03-03T11:50:40;60.51;35.04;73.59;;
53702;Laerm;39594;52.194;9.886;2023-03-03T11:56:13;65.69;40.23;76.95;;
53702;Laerm;39594;52.194;9.886;2023-03-03T11:58:43;64.08;39.57;74.27;;
53702;Laerm;39594;52.194;9.886;2023-03-03T12:03:44;67.43;42.93;84.25;;
53702;Laerm;39594;52.194;9.886;2023-03-03T12:11:51;62.58;39.21;73.45;;
53702;Laerm;39594;52.194;9.886;2023-03-03T12:16:51;64.30;36.20;77.25;;
53702;Laerm;39594;52.194;9.886;2023-03-03T12:27:07;63.63;35.94;74.91;;
53702;Laerm;39594;52.194;9.886;2023-03-03T12:29:49;61.50;39.78;72.10;;
53702;Laerm;39594;52.194;9.886;2023-03-03T12:34:57;65.40;42.47;74.67;;
53702;Laerm;39594;52.194;9.886;2023-03-03T12:42:37;63.67;36.45;77.27;;
53702;Laerm;39594;52.194;9.886;2023-03-03T12:47:43;66.02;40.62;76.33;;
53702;Laerm;39594;52.194;9.886;2023-03-03T12:55:13;62.33;39.34;73.44;;
53702;Laerm;39594;52.194;9.886;2023-03-03T12:57:46;64.17;39.34;78.53;;
53702;Laerm;39594;52.194;9.886;2023-03-03T13:00:38;66.73;38.67;80.07;;
53702;Laerm;39594;52.194;9.886;2023-03-03T13:13:16;64.28;38.67;79.92;;
53702;Laerm;39594;52.194;9.886;2023-03-03T13:15:57;66.31;42.53;79.45;;
53702;Laerm;39594;52.194;9.886;2023-03-03T13:18:29;65.86;43.68;75.35;;
53702;Laerm;39594;52.194;9.886;2023-03-03T13:21:08;62.51;39.08;73.15;;
53702;Laerm;39594;52.194;9.886;2023-03-03T13:24:20;64.08;41.82;72.59;;
53702;Laerm;39594;52.194;9.886;2023-03-03T13:28:58;64.79;39.08;76.32;;
53702;Laerm;39594;52.194;9.886;2023-03-03T13:31:47;63.78;41.22;72.84;;
53702;Laerm;39594;52.194;9.886;2023-03-03T13:34:57;63.63;40.33;78.91;;
53702;Laerm;39594;52.194;9.886;2023-03-03T13:36:58;62.97;36.45;75.40;;
53702;Laerm;39594;52.194;9.886;2023-03-03T13:39:26;65.11;41.82;73.76;;
53702;Laerm;39594;52.194;9.886;2023-03-03T13:44:26;65.62;39.11;78.10;;
53702;Laerm;39594;52.194;9.886;2023-03-03T13:52:09;63.91;37.12;74.44;;
53702;Laerm;39594;52.194;9.886;2023-03-03T13:54:48;62.67;36.91;73.58;;
53702;Laerm;39594;52.194;9.886;2023-03-03T13:57:24;63.69;38.52;77.68;;
53702;Laerm;39594;52.194;9.886;2023-03-03T14:00:56;64.37;42.29;75.47;;
53702;Laerm;39594;52.194;9.886;2023-03-03T14:02:52;64.57;42.64;73.36;;
53702;Laerm;39594;52.194;9.886;2023-03-03T14:13:00;64.40;41.61;77.75;;
53702;Laerm;39594;52.194;9.886;2023-03-03T14:15:30;62.87;38.95;80.82;;
53702;Laerm;39594;52.194;9.886;2023-03-03T14:18:05;64.09;40.03;75.08;;
53702;Laerm;39594;52.194;9.886;2023-03-03T14:20:33;63.93;42.22;72.33;;
53702;Laerm;39594;52.194;9.886;2023-03-03T14:23:16;64.64;35.66;74.67;;
53702;Laerm;39594;52.194;9.886;2023-03-03T14:25:53;62.39;37.12;72.38;;
53702;Laerm;39594;52.194;9.886;2023-03-03T14:28:21;66.12;37.52;80.23;;
53702;Laerm;39594;52.194;9.886;2023-03-03T14:30:46;65.46;40.53;80.29;;
53702;Laerm;39594;52.194;9.886;2023-03-03T14:38:12;63.29;38.52;72.86;;
53702;Laerm;39594;52.194;9.886;2023-03-03T14:40:39;63.92;39.46;74.40;;
53702;Laerm;39594;52.194;9.886;2023-03-03T14:45:51;62.41;39.46;73.46;;
53702;Laerm;39594;52.194;9.886;2023-03-03T14:48:21;64.51;39.46;74.68;;
53702;Laerm;39594;52.194;9.886;2023-03-03T14:50:51;63.91;41.06;73.45;;
53702;Laerm;39594;52.194;9.886;2023-03-03T14:55:43;62.72;38.21;73.33;;
53702;Laerm;39594;52.194;9.886;2023-03-03T14:58:24;63.54;40.80;72.63;;
53702;Laerm;39594;52.194;9.886;2023-03-03T15:00:50;61.13;36.45;73.88;;
53702;Laerm;39594;52.194;9.886;2023-03-03T15:03:30;65.48;41.30;74.66;;
53702;Laerm;39594;52.194;9.886;2023-03-03T15:05:55;62.61;35.66;74.48;;
53702;Laerm;39594;52.194;9.886;2023-03-03T15:08:32;64.32;42.41;74.14;;
53702;Laerm;39594;52.194;9.886;2023-03-03T15:11:17;63.57;39.92;74.01;;
53702;Laerm;39594;52.194;9.886;2023-03-03T15:13:43;61.19;38.52;72.96;;
53702;Laerm;39594;52.194;9.886;2023-03-03T15:16:10;63.24;39.81;75.19;;
53702;Laerm;39594;52.194;9.886;2023-03-03T15:18:49;62.33;39.08;73.47;;
53702;Laerm;39594;52.194;9.886;2023-03-03T15:21:17;62.72;39.46;75.58;;
53702;Laerm;39594;52.194;9.886;2023-03-03T15:28:44;61.49;36.45;71.99;;
53702;Laerm;39594;52.194;9.886;2023-03-03T15:34:01;63.32;39.08;74.38;;
53702;Laerm;39594;52.194;9.886;2023-03-03T15:39:06;63.27;42.65;73.00;;
53702;Laerm;39594;52.194;9.886;2023-03-03T15:49:18;63.23;40.89;74.15;;
53702;Laerm;39594;52.194;9.886;2023-03-03T15:54:26;61.72;36.91;75.45;;
53702;Laerm;39594;52.194;9.886;2023-03-03T15:56:53;61.45;37.52;77.19;;
53702;Laerm;39594;52.194;9.886;2023-03-03T16:01:49;62.57;40.33;74.47;;
53702;Laerm;39594;52.194;9.886;2023-03-03T16:04:17;62.81;39.58;74.62;;
53702;Laerm;39594;52.194;9.886;2023-03-03T16:06:56;63.32;38.67;73.74;;
53702;Laerm;39594;52.194;9.886;2023-03-03T16:12:46;63.24;38.37;75.15;;
53702;Laerm;39594;52.194;9.886;2023-03-03T16:20:47;65.74;43.19;76.85;;
53702;Laerm;39594;52.194;9.886;2023-03-03T16:28:21;62.53;40.33;72.63;;
53702;Laerm;39594;52.194;9.886;2023-03-03T16:30:55;62.87;39.21;74.71;;
53702;Laerm;39594;52.194;9.886;2023-03-03T16:36:11;61.90;40.62;72.61;;
53702;Laerm;39594;52.194;9.886;2023-03-03T16:38:40;63.90;42.35;73.41;;
53702;Laerm;39594;52.194;9.886;2023-03-03T16:41:11;63.69;41.46;73.93;;
53702;Laerm;39594;52.194;9.886;2023-03-03T16:43:55;64.19;41.30;74.46;;
53702;Laerm;39594;52.194;9.886;2023-03-03T16:46:37;61.21;40.62;74.96;;
53702;Laerm;39594;52.194;9.886;2023-03-03T16:52:09;63.00;41.30;74.79;;
53702;Laerm;39594;52.194;9.886;2023-03-03T16:54:43;62.70;42.71;73.44;;
53702;Laerm;39594;52.194;9.886;2023-03-03T16:57:20;60.10;39.21;74.34;;
53702;Laerm;39594;52.194;9.886;2023-03-03T16:59:55;61.88;41.30;73.65;;
53702;Laerm;39594;52.194;9.886;2023-03-03T17:07:42;61.29;38.81;75.74;;
53702;Laerm;39594;52.194;9.886;2023-03-03T17:15:34;62.78;41.30;74.06;;
53702;Laerm;39594;52.194;9.886;2023-03-03T17:18:12;64.04;40.53;75.61;;
53702;Laerm;39594;52.194;9.886;2023-03-03T17:20:48;60.83;40.71;72.90;;
53702;Laerm;39594;52.194;9.886;2023-03-03T17:25:42;64.13;42.35;74.34;;
53702;Laerm;39594;52.194;9.886;2023-03-03T17:31:02;62.25;40.80;73.66;;